createdAt,value
2023-02-23T00:02:01.789Z,34.10
2023-02-23T00:05:10.220Z,34.10
2023-02-23T00:08:18.060Z,34.10
2023-02-23T00:11:27.228Z,34.10
2023-02-23T00:14:35.515Z,34.10
2023-02-23T00:17:47.701Z,34.10
2023-02-23T00:20:58.738Z,34.10
2023-02-23T00:24:08.315Z,34.10
2023-02-23T00:27:20.868Z,34.10
2023-02-23T00:30:28.764Z,34.10
2023-02-23T00:33:38.326Z,34.10
2023-02-23T00:36:46.360Z,34.20
2023-02-23T00:39:56.501Z,34.20
2023-02-23T00:43:04.706Z,34.20
2023-02-23T00:46:12.871Z,34.20
2023-02-23T00:49:22.866Z,34.80
2023-02-23T00:52:30.935Z,34.20
2023-02-23T00:55:42.085Z,34.80
2023-02-23T00:58:51.072Z,34.20
2023-02-23T01:01:59.244Z,34.20
2023-02-23T01:05:09.603Z,34.20
2023-02-23T01:08:18.077Z,34.80
2023-02-23T01:11:27.919Z,34.20
2023-02-23T01:14:35.894Z,34.20
2023-02-23T01:17:45.429Z,34.20
2023-02-23T01:20:54.961Z,34.20
2023-02-23T01:24:02.869Z,34.20
2023-02-23T01:27:10.661Z,34.30
2023-02-23T01:30:18.772Z,34.30
2023-02-23T01:33:26.818Z,34.30
2023-02-23T01:36:37.017Z,34.30
2023-02-23T01:39:44.836Z,34.30
2023-02-23T01:42:53.040Z,34.20
2023-02-23T01:46:01.302Z,34.20
2023-02-23T01:49:10.812Z,34.20
2023-02-23T01:52:20.359Z,34.20
2023-02-23T01:55:29.729Z,34.20
2023-02-23T01:58:40.147Z,34.20
2023-02-23T02:01:48.231Z,34.20
2023-02-23T02:04:57.160Z,34.20
2023-02-23T02:08:10.999Z,34.10
2023-02-23T02:11:30.882Z,34.10
2023-02-23T02:14:39.062Z,34.10
2023-02-23T02:17:48.937Z,34.10
2023-02-23T02:21:11.567Z,34.10
2023-02-23T02:24:31.269Z,34.10
2023-02-23T02:28:04.289Z,34.10
2023-02-23T02:31:55.424Z,34.10
2023-02-23T02:35:23.572Z,34.10
2023-02-23T02:38:37.618Z,34.10
2023-02-23T02:41:51.205Z,34.10
2023-02-23T02:45:01.116Z,34.10
2023-02-23T02:48:15.122Z,34.00
2023-02-23T02:51:25.022Z,34.10
2023-02-23T02:54:36.529Z,34.60
2023-02-23T02:57:46.729Z,34.00
2023-02-23T03:01:12.588Z,34.00
2023-02-23T03:04:39.266Z,34.00
2023-02-23T03:08:09.896Z,34.00
2023-02-23T03:11:36.882Z,34.00
2023-02-23T03:15:06.842Z,34.00
2023-02-23T03:18:46.023Z,34.00
2023-02-23T03:22:13.293Z,34.60
2023-02-23T03:25:40.994Z,34.00
2023-02-23T03:29:11.909Z,34.00
2023-02-23T03:32:40.836Z,34.00
2023-02-23T03:36:09.514Z,34.00
2023-02-23T03:39:39.755Z,34.60
2023-02-23T03:43:05.205Z,34.00
2023-02-23T03:46:31.993Z,34.00
2023-02-23T03:49:58.398Z,34.10
2023-02-23T03:53:24.540Z,34.10
2023-02-23T03:56:50.279Z,34.10
2023-02-23T04:00:17.292Z,34.10
2023-02-23T04:03:44.051Z,34.10
2023-02-23T04:07:09.606Z,34.70
2023-02-23T04:10:35.763Z,34.10
2023-02-23T04:13:42.499Z,34.10
2023-02-23T04:16:49.292Z,34.10
2023-02-23T04:19:59.714Z,34.20
2023-02-23T04:23:07.715Z,34.10
2023-02-23T04:26:15.871Z,34.20
2023-02-23T04:29:24.108Z,34.70
2023-02-23T04:32:32.414Z,34.20
2023-02-23T04:35:41.664Z,34.20
2023-02-23T04:38:49.828Z,34.20
2023-02-23T04:41:57.825Z,34.20
2023-02-23T04:45:06.197Z,34.20
2023-02-23T04:48:14.253Z,34.20
2023-02-23T04:51:23.434Z,34.20
2023-02-23T04:54:31.486Z,34.20
2023-02-23T04:57:39.457Z,34.20
2023-02-23T05:00:47.940Z,34.20
2023-02-23T05:03:55.801Z,34.20
2023-02-23T05:07:05.327Z,34.20
2023-02-23T05:10:13.701Z,34.20
2023-02-23T05:13:21.760Z,34.30
2023-02-23T05:16:29.627Z,34.30
2023-02-23T05:19:37.932Z,34.30
2023-02-23T05:22:47.296Z,34.20
2023-02-23T05:25:55.454Z,34.20
2023-02-23T05:29:03.667Z,34.20
2023-02-23T05:32:11.546Z,34.20
2023-02-23T05:35:19.693Z,34.20
2023-02-23T05:38:28.934Z,34.10
2023-02-23T05:41:36.750Z,34.10
2023-02-23T05:44:44.618Z,34.10
2023-02-23T05:47:52.571Z,34.10
2023-02-23T05:51:02.659Z,34.10
2023-02-23T05:54:14.041Z,34.10
2023-02-23T05:57:21.995Z,34.10
2023-02-23T06:00:30.191Z,34.10
2023-02-23T06:03:38.053Z,34.10
2023-02-23T06:06:46.897Z,34.10
2023-02-23T06:09:56.516Z,34.10
2023-02-23T06:13:04.720Z,34.10
2023-02-23T06:16:12.951Z,34.10
2023-02-23T06:19:21.494Z,34.10
2023-02-23T06:22:29.497Z,34.10
2023-02-23T06:25:38.870Z,34.10
2023-02-23T06:28:46.730Z,34.10
2023-02-23T06:31:54.794Z,34.10
2023-02-23T06:35:03.763Z,34.10
2023-02-23T06:38:11.902Z,34.10
2023-02-23T06:41:21.484Z,34.10
2023-02-23T06:44:29.560Z,34.10
2023-02-23T06:47:37.680Z,34.10
2023-02-23T06:50:45.864Z,34.20
2023-02-23T06:53:54.031Z,34.10
2023-02-23T06:57:03.097Z,34.60
2023-02-23T07:00:12.612Z,34.20
2023-02-23T07:03:20.398Z,34.20
2023-02-23T07:06:28.709Z,34.20
2023-02-23T07:09:36.666Z,34.20
2023-02-23T07:12:46.068Z,34.20
2023-02-23T07:15:58.213Z,34.20
2023-02-23T07:19:06.295Z,34.20
2023-02-23T07:22:14.198Z,34.20
2023-02-23T07:25:22.523Z,34.60
2023-02-23T07:28:31.944Z,34.30
2023-02-23T07:31:40.025Z,34.30
2023-02-23T07:34:48.213Z,34.30
2023-02-23T07:37:56.198Z,34.30
2023-02-23T07:41:04.441Z,34.30
2023-02-23T07:44:13.592Z,34.30
2023-02-23T07:47:22.677Z,34.30
2023-02-23T07:50:30.436Z,34.30
2023-02-23T07:53:38.229Z,34.30
2023-02-23T07:56:46.284Z,34.40
2023-02-23T07:59:55.618Z,34.40
2023-02-23T08:03:03.755Z,34.40
2023-02-23T08:06:11.881Z,34.40
2023-02-23T08:09:20.168Z,34.50
2023-02-23T08:12:28.354Z,34.40
2023-02-23T08:15:37.585Z,34.50
2023-02-23T08:18:46.152Z,34.50
2023-02-23T08:21:54.565Z,34.50
2023-02-23T08:25:05.798Z,34.60
2023-02-23T08:28:13.744Z,34.70
2023-02-23T08:31:24.450Z,34.60
2023-02-23T08:34:33.301Z,34.60
2023-02-23T08:37:41.873Z,34.70
2023-02-23T08:40:49.800Z,34.70
2023-02-23T08:43:59.062Z,35.30
2023-02-23T08:47:08.636Z,34.70
2023-02-23T08:50:16.925Z,34.70
2023-02-23T08:53:25.707Z,34.70
2023-02-23T08:56:33.985Z,34.70
2023-02-23T08:59:42.186Z,34.70
2023-02-23T09:02:51.657Z,34.70
2023-02-23T09:06:05.450Z,34.70
2023-02-23T09:09:13.487Z,34.70
2023-02-23T09:12:21.653Z,34.70
2023-02-23T09:15:30.360Z,34.70
2023-02-23T09:18:39.898Z,34.70
2023-02-23T09:21:48.038Z,34.60
2023-02-23T09:24:56.225Z,34.70
2023-02-23T09:28:04.290Z,34.60
2023-02-23T09:31:13.236Z,34.60
2023-02-23T09:34:22.637Z,34.60
2023-02-23T09:37:30.529Z,34.70
2023-02-23T09:40:44.229Z,34.60
2023-02-23T09:43:54.441Z,34.60
2023-02-23T09:47:10.825Z,34.60
2023-02-23T09:50:24.539Z,35.30
2023-02-23T09:53:35.394Z,34.80
2023-02-23T09:56:45.026Z,34.60
2023-02-23T09:59:53.136Z,34.60
2023-02-23T10:03:08.001Z,34.70
2023-02-23T10:06:18.736Z,34.70
2023-02-23T10:09:32.074Z,34.90
2023-02-23T10:12:43.620Z,34.70
2023-02-23T10:15:52.921Z,34.70
2023-02-23T10:19:04.983Z,34.80
2023-02-23T10:22:15.684Z,34.80
2023-02-23T10:25:25.878Z,34.80
2023-02-23T10:28:35.901Z,34.80
2023-02-23T10:31:45.384Z,34.80
2023-02-23T10:34:56.430Z,34.80
2023-02-23T10:38:06.037Z,34.80
2023-02-23T10:41:15.049Z,34.80
2023-02-23T10:44:24.477Z,34.90
2023-02-23T10:47:33.524Z,34.80
2023-02-23T10:50:41.198Z,34.90
2023-02-23T10:53:50.779Z,34.90
2023-02-23T10:56:58.805Z,34.90
2023-02-23T11:00:27.590Z,34.90
2023-02-23T11:03:41.188Z,34.90
2023-02-23T11:06:52.969Z,35.00
2023-02-23T11:10:27.463Z,35.00
2023-02-23T11:13:40.147Z,35.00
2023-02-23T11:16:48.141Z,35.00
2023-02-23T11:20:02.551Z,35.00
2023-02-23T11:23:14.793Z,35.00
2023-02-23T11:26:37.095Z,35.00
2023-02-23T11:29:46.775Z,35.00
2023-02-23T11:32:55.704Z,35.00
2023-02-23T11:36:16.157Z,35.00
2023-02-23T11:39:24.213Z,35.00
2023-02-23T11:42:34.362Z,35.00
2023-02-23T11:45:46.687Z,35.10
2023-02-23T11:48:57.409Z,35.10
2023-02-23T11:52:05.634Z,35.10
2023-02-23T11:55:17.425Z,35.70
2023-02-23T11:58:30.619Z,35.10
2023-02-23T12:01:44.462Z,35.10
2023-02-23T12:04:53.456Z,35.10
2023-02-23T12:08:03.995Z,35.00
2023-02-23T12:11:13.464Z,35.10
2023-02-23T12:14:27.955Z,35.00
2023-02-23T12:17:41.158Z,35.00
2023-02-23T12:20:49.962Z,35.10
2023-02-23T12:24:13.837Z,35.10
2023-02-23T12:27:23.704Z,35.10
2023-02-23T12:30:40.574Z,35.10
2023-02-23T12:33:49.617Z,35.20
2023-02-23T12:36:58.333Z,35.20
2023-02-23T12:40:13.612Z,35.20
2023-02-23T12:43:26.044Z,35.20
2023-02-23T12:46:36.538Z,35.20
2023-02-23T12:49:45.439Z,35.10
2023-02-23T12:52:57.528Z,35.10
2023-02-23T12:56:14.310Z,35.10
2023-02-23T12:59:41.001Z,35.10
2023-02-23T13:02:51.675Z,35.10
2023-02-23T13:06:03.369Z,35.10
2023-02-23T13:09:18.908Z,35.00
2023-02-23T13:12:42.837Z,35.10
2023-02-23T13:16:00.039Z,35.10
2023-02-23T13:19:15.180Z,35.10
2023-02-23T13:22:28.115Z,35.10
2023-02-23T13:25:38.164Z,35.10
2023-02-23T13:28:52.412Z,35.10
2023-02-23T13:32:00.948Z,35.10
2023-02-23T13:35:15.678Z,35.10
2023-02-23T13:38:27.397Z,35.10
2023-02-23T13:41:37.197Z,35.10
2023-02-23T13:44:48.749Z,35.10
2023-02-23T13:47:58.417Z,35.10
2023-02-23T13:51:09.560Z,35.10
2023-02-23T13:54:24.760Z,35.20
2023-02-23T13:57:32.748Z,35.10
2023-02-23T14:00:40.920Z,35.10
2023-02-23T14:03:54.618Z,35.10
2023-02-23T14:07:06.138Z,35.10
2023-02-23T14:10:18.813Z,35.10
2023-02-23T14:13:28.947Z,35.10
2023-02-23T14:16:37.150Z,35.10
2023-02-23T14:19:45.414Z,35.80
2023-02-23T14:23:18.446Z,35.10
2023-02-23T14:26:43.503Z,35.10
2023-02-23T14:30:26.859Z,35.20
2023-02-23T14:33:35.066Z,35.20
2023-02-23T14:36:44.914Z,35.20
2023-02-23T14:39:55.234Z,35.20
2023-02-23T14:43:03.711Z,35.80
2023-02-23T14:46:19.649Z,35.30
2023-02-23T14:49:28.823Z,35.20
2023-02-23T14:52:37.756Z,35.30
2023-02-23T14:55:47.223Z,35.30
2023-02-23T14:58:56.061Z,35.30
2023-02-23T15:02:07.930Z,35.30
2023-02-23T15:05:16.390Z,35.30
2023-02-23T15:08:25.062Z,35.30
2023-02-23T15:11:34.517Z,35.30
2023-02-23T15:14:42.277Z,35.30
2023-02-23T15:17:52.342Z,35.30
2023-02-23T15:21:00.166Z,35.30
2023-02-23T15:24:11.522Z,35.30
2023-02-23T15:27:23.540Z,35.30
2023-02-23T15:30:32.615Z,35.40
2023-02-23T15:33:42.564Z,35.40
2023-02-23T15:36:53.065Z,35.40
2023-02-23T15:40:02.274Z,35.40
2023-02-23T15:43:11.812Z,35.40
2023-02-23T15:46:24.096Z,36.00
2023-02-23T15:49:33.685Z,36.00
2023-02-23T15:52:45.214Z,35.50
2023-02-23T15:55:55.506Z,35.50
2023-02-23T15:59:11.016Z,35.50
2023-02-23T16:02:19.911Z,35.50
2023-02-23T16:05:32.503Z,35.50
2023-02-23T16:08:56.806Z,36.10
2023-02-23T16:12:05.710Z,35.50
2023-02-23T16:15:24.542Z,35.50
2023-02-23T16:18:39.029Z,35.50
2023-02-23T16:21:50.446Z,35.50
2023-02-23T16:25:03.580Z,35.80
2023-02-23T16:28:18.496Z,35.50
2023-02-23T16:31:43.346Z,35.60
2023-02-23T16:34:54.678Z,35.60
2023-02-23T16:38:03.448Z,35.60
2023-02-23T16:41:16.732Z,35.60
2023-02-23T16:44:31.430Z,35.60
2023-02-23T16:47:48.416Z,35.60
2023-02-23T16:50:56.346Z,35.60
2023-02-23T16:54:05.156Z,35.50
2023-02-23T16:57:22.304Z,35.60
2023-02-23T17:00:31.879Z,35.50
2023-02-23T17:03:52.423Z,35.50
2023-02-23T17:07:01.038Z,35.50
2023-02-23T17:10:10.257Z,35.50
2023-02-23T17:13:19.146Z,35.50
2023-02-23T17:16:27.172Z,35.50
2023-02-23T17:19:36.445Z,35.50
2023-02-23T17:22:44.737Z,35.50
2023-02-23T17:25:52.637Z,35.50
2023-02-23T17:29:00.737Z,35.50
2023-02-23T17:32:10.250Z,35.50
2023-02-23T17:35:20.006Z,35.50
2023-02-23T17:38:34.500Z,35.50
2023-02-23T17:41:43.203Z,35.50
2023-02-23T17:44:51.224Z,35.50
2023-02-23T17:47:59.304Z,35.50
2023-02-23T17:51:10.181Z,35.50
2023-02-23T17:54:18.001Z,35.50
2023-02-23T17:57:26.146Z,35.50
2023-02-23T18:00:37.719Z,35.50
2023-02-23T18:03:45.638Z,35.50
2023-02-23T18:06:56.653Z,35.50
2023-02-23T18:10:04.730Z,35.50
2023-02-23T18:13:12.615Z,35.50
2023-02-23T18:16:21.612Z,35.60
2023-02-23T18:19:30.651Z,35.60
2023-02-23T18:22:40.152Z,35.60
2023-02-23T18:25:48.345Z,35.60
2023-02-23T18:28:56.937Z,35.60
2023-02-23T18:32:06.581Z,35.60
2023-02-23T18:35:14.714Z,35.60
2023-02-23T18:38:24.165Z,35.60
2023-02-23T18:41:31.954Z,35.60
2023-02-23T18:44:39.916Z,35.70
2023-02-23T18:47:47.903Z,35.70
2023-02-23T18:50:59.222Z,35.70
2023-02-23T18:54:11.714Z,35.70
2023-02-23T18:57:19.579Z,35.70
2023-02-23T19:00:32.900Z,35.70
2023-02-23T19:03:41.571Z,35.70
2023-02-23T19:06:49.740Z,35.70
2023-02-23T19:10:02.279Z,35.70
2023-02-23T19:13:10.537Z,35.80
2023-02-23T19:16:18.678Z,35.80
2023-02-23T19:19:26.778Z,35.80
2023-02-23T19:22:34.573Z,35.80
2023-02-23T19:25:47.187Z,35.80
2023-02-23T19:28:55.217Z,35.80
2023-02-23T19:32:03.484Z,35.80
2023-02-23T19:35:14.761Z,35.80
2023-02-23T19:38:22.620Z,35.80
2023-02-23T19:41:32.315Z,35.80
2023-02-23T19:44:40.114Z,35.80
2023-02-23T19:47:48.021Z,35.90
2023-02-23T19:50:56.065Z,35.90
2023-02-23T19:54:04.235Z,35.90
2023-02-23T19:57:13.795Z,35.90
2023-02-23T20:00:21.949Z,35.90
2023-02-23T20:03:29.843Z,35.90
2023-02-23T20:06:40.961Z,35.90
2023-02-23T20:09:48.756Z,35.90
2023-02-23T20:12:58.216Z,35.90
2023-02-23T20:16:09.007Z,35.90
2023-02-23T20:19:17.813Z,36.00
2023-02-23T20:22:25.853Z,36.00
2023-02-23T20:25:33.852Z,35.90
2023-02-23T20:28:43.379Z,36.00
2023-02-23T20:31:52.033Z,36.00
2023-02-23T20:35:01.593Z,36.00
2023-02-23T20:38:09.964Z,36.00
2023-02-23T20:41:18.485Z,36.00
2023-02-23T20:44:29.082Z,35.90
2023-02-23T20:47:38.016Z,35.90
2023-02-23T20:50:45.847Z,35.90
2023-02-23T20:53:54.127Z,35.90
2023-02-23T20:57:07.586Z,35.80
2023-02-23T21:00:20.543Z,35.80
2023-02-23T21:03:28.730Z,35.80
2023-02-23T21:06:36.591Z,35.80
2023-02-23T21:09:45.348Z,35.70
2023-02-23T21:12:54.034Z,35.70
2023-02-23T21:16:03.366Z,35.70
2023-02-23T21:19:11.775Z,35.70
2023-02-23T21:22:19.905Z,35.70
2023-02-23T21:25:28.708Z,35.70
2023-02-23T21:28:37.615Z,35.70
2023-02-23T21:31:47.518Z,35.70
2023-02-23T21:34:55.679Z,35.80
2023-02-23T21:38:04.134Z,35.70
2023-02-23T21:41:12.348Z,35.70
2023-02-23T21:44:20.406Z,35.80
2023-02-23T21:47:29.588Z,35.70
2023-02-23T21:50:37.481Z,35.70
2023-02-23T21:53:45.655Z,35.70
2023-02-23T21:56:53.739Z,35.70
2023-02-23T22:00:01.634Z,36.40
2023-02-23T22:03:11.022Z,35.70
2023-02-23T22:06:19.625Z,35.70
2023-02-23T22:09:27.803Z,35.70
2023-02-23T22:12:36.041Z,35.70
2023-02-23T22:15:44.092Z,35.70
2023-02-23T22:18:53.274Z,35.70
2023-02-23T22:22:01.507Z,35.70
2023-02-23T22:25:10.314Z,35.70
2023-02-23T22:28:18.400Z,35.70
2023-02-23T22:31:26.266Z,35.70
2023-02-23T22:34:35.600Z,35.70
2023-02-23T22:37:43.793Z,36.30
2023-02-23T22:40:51.945Z,35.70
2023-02-23T22:43:59.999Z,35.70
2023-02-23T22:47:08.051Z,35.70
2023-02-23T22:50:19.059Z,35.70
2023-02-23T22:53:27.710Z,35.70
2023-02-23T22:56:36.880Z,35.60
2023-02-23T22:59:54.519Z,35.70
2023-02-23T23:03:05.425Z,35.70
2023-02-23T23:06:16.472Z,35.60
2023-02-23T23:09:24.745Z,35.60
2023-02-23T23:12:34.202Z,35.60
2023-02-23T23:15:43.056Z,35.60
2023-02-23T23:18:54.305Z,35.60
2023-02-23T23:22:03.622Z,35.60
2023-02-23T23:25:14.759Z,35.60
2023-02-23T23:28:24.369Z,35.60
2023-02-23T23:31:34.627Z,35.60
2023-02-23T23:34:42.566Z,35.60
2023-02-23T23:37:52.429Z,35.60
2023-02-23T23:41:10.085Z,35.60
2023-02-23T23:44:19.482Z,35.60
2023-02-23T23:47:28.011Z,35.60
2023-02-23T23:50:35.838Z,35.60
2023-02-23T23:53:45.144Z,35.50
2023-02-23T23:56:53.166Z,35.50
